createdAt,value
2024-04-30T00:01:10.982Z,98184.56
2024-04-30T00:03:41.964Z,98187.16
2024-04-30T00:06:10.224Z,98186.47
2024-04-30T00:08:38.246Z,98184.44
2024-04-30T00:11:05.896Z,98180.38
2024-04-30T00:13:33.461Z,98176.38
2024-04-30T00:16:04.651Z,98175.00
2024-04-30T00:18:32.258Z,98168.81
2024-04-30T00:20:59.871Z,98159.72
2024-04-30T00:23:27.504Z,98165.13
2024-04-30T00:25:55.000Z,98159.00
2024-04-30T00:28:22.571Z,98160.81
2024-04-30T00:30:50.110Z,98156.75
2024-04-30T00:33:18.047Z,98152.66
2024-04-30T00:35:45.542Z,98147.53
2024-04-30T00:38:13.195Z,98152.28
2024-04-30T00:40:42.111Z,98157.88
2024-04-30T00:43:09.846Z,98154.69
2024-04-30T00:45:37.394Z,98157.09
2024-04-30T00:48:06.298Z,98153.66
2024-04-30T00:50:34.696Z,98152.84
2024-04-30T00:53:02.932Z,98152.53
2024-04-30T00:55:30.664Z,98155.72
2024-04-30T00:57:58.363Z,98146.34
2024-04-30T01:00:26.050Z,98141.47
2024-04-30T01:02:53.650Z,98137.69
2024-04-30T01:05:21.137Z,98141.41
2024-04-30T01:07:48.705Z,98142.06
2024-04-30T01:10:18.051Z,98139.91
2024-04-30T01:12:45.722Z,98139.59
2024-04-30T01:15:14.147Z,98138.19
2024-04-30T01:17:41.807Z,98136.19
2024-04-30T01:20:09.862Z,98136.63
2024-04-30T01:22:41.730Z,98134.66
2024-04-30T01:25:09.490Z,98131.13
2024-04-30T01:27:36.990Z,98128.41
2024-04-30T01:30:04.952Z,98127.59
2024-04-30T01:32:32.756Z,98130.69
2024-04-30T01:35:00.476Z,98123.81
2024-04-30T01:37:28.240Z,98127.00
2024-04-30T01:39:55.848Z,98127.13
2024-04-30T01:42:23.453Z,98121.06
2024-04-30T01:44:51.053Z,98112.50
2024-04-30T01:47:18.569Z,98117.59
2024-04-30T01:49:46.121Z,98112.22
2024-04-30T01:52:13.734Z,98108.69
2024-04-30T01:54:41.321Z,98111.00
2024-04-30T01:57:08.855Z,98101.09
2024-04-30T01:59:36.464Z,98106.97
2024-04-30T02:02:04.234Z,98105.09
2024-04-30T02:04:38.741Z,98103.91
2024-04-30T02:07:13.684Z,98096.09
2024-04-30T02:09:41.186Z,98093.09
2024-04-30T02:12:08.767Z,98095.53
2024-04-30T02:14:36.294Z,98089.09
2024-04-30T02:17:03.989Z,98089.09
2024-04-30T02:19:31.714Z,98087.50
2024-04-30T02:21:59.397Z,98089.91
2024-04-30T02:24:27.097Z,98095.97
2024-04-30T02:26:54.704Z,98085.59
2024-04-30T02:29:22.717Z,98082.13
2024-04-30T02:32:08.933Z,98088.84
2024-04-30T02:34:36.504Z,98079.09
2024-04-30T02:37:04.275Z,98085.47
2024-04-30T02:39:31.954Z,98078.41
2024-04-30T02:41:59.461Z,98075.13
2024-04-30T02:44:27.083Z,98077.50
2024-04-30T02:46:54.618Z,98074.44
2024-04-30T02:49:22.210Z,98077.03
2024-04-30T02:51:49.742Z,98076.09
2024-04-30T02:54:17.258Z,98066.91
2024-04-30T02:56:44.846Z,98075.16
2024-04-30T02:59:12.516Z,98072.16
2024-04-30T03:01:40.089Z,98071.53
2024-04-30T03:04:07.967Z,98067.50
2024-04-30T03:06:38.839Z,98062.97
2024-04-30T03:09:07.438Z,98059.44
2024-04-30T03:11:34.957Z,98055.09
2024-04-30T03:14:02.610Z,98062.28
2024-04-30T03:16:30.239Z,98056.88
2024-04-30T03:18:57.889Z,98056.25
2024-04-30T03:21:25.420Z,98048.31
2024-04-30T03:23:52.993Z,98053.16
2024-04-30T03:26:20.541Z,98053.97
2024-04-30T03:28:48.147Z,98043.44
2024-04-30T03:31:17.413Z,98047.50
2024-04-30T03:33:45.212Z,98040.69
2024-04-30T03:36:12.791Z,98044.13
2024-04-30T03:38:43.400Z,98041.75
2024-04-30T03:41:13.301Z,98043.88
2024-04-30T03:43:40.962Z,98046.41
2024-04-30T03:46:15.378Z,98043.13
2024-04-30T03:48:43.407Z,98050.25
2024-04-30T03:51:10.960Z,98050.19
2024-04-30T03:53:38.520Z,98058.19
2024-04-30T03:56:06.317Z,98052.63
2024-04-30T03:58:34.043Z,98052.91
2024-04-30T04:01:01.883Z,98049.63
2024-04-30T04:03:29.600Z,98046.66
2024-04-30T04:05:57.493Z,98050.34
2024-04-30T04:08:25.170Z,98053.88
2024-04-30T04:11:11.644Z,98049.03
2024-04-30T04:13:57.902Z,98053.22
2024-04-30T04:16:25.538Z,98040.50
2024-04-30T04:18:53.075Z,98043.00
2024-04-30T04:21:23.464Z,98044.88
2024-04-30T04:23:51.829Z,98040.78
2024-04-30T04:26:19.385Z,98049.69
2024-04-30T04:28:46.993Z,98048.72
2024-04-30T04:31:14.568Z,98060.56
2024-04-30T04:33:42.160Z,98054.94
2024-04-30T04:36:18.642Z,98057.09
2024-04-30T04:38:46.231Z,98056.88
2024-04-30T04:41:13.801Z,98056.31
2024-04-30T04:43:41.441Z,98056.81
2024-04-30T04:46:08.999Z,98053.69
2024-04-30T04:48:36.643Z,98054.38
2024-04-30T04:51:05.982Z,98049.53
2024-04-30T04:53:33.573Z,98055.25
2024-04-30T04:56:01.126Z,98055.72
2024-04-30T04:58:28.771Z,98052.66
2024-04-30T05:00:56.448Z,98056.13
2024-04-30T05:03:24.150Z,98054.66
2024-04-30T05:05:51.750Z,98046.28
2024-04-30T05:08:19.447Z,98056.09
2024-04-30T05:10:47.084Z,98051.75
2024-04-30T05:13:14.826Z,98048.19
2024-04-30T05:15:42.371Z,98044.44
2024-04-30T05:18:10.090Z,98054.44
2024-04-30T05:20:37.635Z,98054.72
2024-04-30T05:23:05.400Z,98045.13
2024-04-30T05:25:32.936Z,98042.44
2024-04-30T05:28:04.258Z,98046.63
2024-04-30T05:30:31.973Z,98045.72
2024-04-30T05:35:27.032Z,98048.44
2024-04-30T05:37:54.738Z,98041.50
2024-04-30T05:40:22.388Z,98050.97
2024-04-30T05:42:49.980Z,98047.69
2024-04-30T05:45:17.631Z,98043.13
2024-04-30T05:47:45.256Z,98044.84
2024-04-30T05:50:13.797Z,98039.81
2024-04-30T05:52:41.368Z,98040.09
2024-04-30T05:55:09.432Z,98039.56
2024-04-30T05:57:38.641Z,98032.72
2024-04-30T06:00:07.273Z,98035.44
2024-04-30T06:02:35.103Z,98036.78
2024-04-30T06:05:03.146Z,98034.16
2024-04-30T06:07:30.861Z,98035.44
2024-04-30T06:10:01.448Z,98042.50
2024-04-30T06:12:29.144Z,98048.75
2024-04-30T06:14:56.695Z,98049.50
2024-04-30T06:17:24.382Z,98054.75
2024-04-30T06:19:53.922Z,98048.50
2024-04-30T06:22:22.356Z,98051.13
2024-04-30T06:24:50.258Z,98043.78
2024-04-30T06:27:17.992Z,98041.25
2024-04-30T06:29:46.397Z,98042.97
2024-04-30T06:32:14.285Z,98044.09
2024-04-30T06:34:43.508Z,98047.94
2024-04-30T06:37:11.629Z,98043.22
2024-04-30T06:39:39.360Z,98048.00
2024-04-30T06:42:07.146Z,98045.97
2024-04-30T06:44:35.055Z,98052.75
2024-04-30T06:47:02.661Z,98050.59
2024-04-30T06:49:30.180Z,98044.41
2024-04-30T06:51:57.783Z,98042.72
2024-04-30T06:54:25.390Z,98038.41
2024-04-30T06:56:53.000Z,98040.69
2024-04-30T06:59:20.600Z,98043.97
2024-04-30T07:01:48.291Z,98038.47
2024-04-30T07:04:15.969Z,98039.78
2024-04-30T07:06:44.152Z,98037.97
2024-04-30T07:09:11.779Z,98037.59
2024-04-30T07:11:39.460Z,98037.72
2024-04-30T07:14:07.116Z,98039.44
2024-04-30T07:16:48.513Z,98038.38
2024-04-30T07:19:23.808Z,98037.91
2024-04-30T07:21:51.458Z,98036.38
2024-04-30T07:24:19.068Z,98033.31
2024-04-30T07:26:46.681Z,98032.09
2024-04-30T07:29:14.340Z,98033.03
2024-04-30T07:31:41.927Z,98033.69
2024-04-30T07:34:09.665Z,98026.28
2024-04-30T07:36:37.194Z,98025.38
2024-04-30T07:39:05.212Z,98024.91
2024-04-30T07:41:32.759Z,98029.69
2024-04-30T07:44:00.475Z,98027.56
2024-04-30T07:46:28.190Z,98022.69
2024-04-30T07:48:55.879Z,98023.34
2024-04-30T07:51:23.445Z,98021.53
2024-04-30T07:53:51.073Z,98033.25
2024-04-30T07:56:18.622Z,98020.72
2024-04-30T07:58:46.362Z,98027.16
2024-04-30T08:01:14.666Z,98025.47
2024-04-30T08:03:43.072Z,98023.84
2024-04-30T08:06:18.592Z,98022.38
2024-04-30T08:08:48.607Z,98021.94
2024-04-30T08:11:16.539Z,98016.69
2024-04-30T08:13:45.615Z,98015.97
2024-04-30T08:16:14.139Z,98017.13
2024-04-30T08:18:41.836Z,98005.75
2024-04-30T08:21:09.400Z,98010.66
2024-04-30T08:23:37.103Z,97999.88
2024-04-30T08:26:04.890Z,98015.13
2024-04-30T08:28:32.464Z,98006.34
2024-04-30T08:31:00.423Z,98011.94
2024-04-30T08:33:28.450Z,98009.13
2024-04-30T08:35:56.044Z,98010.88
2024-04-30T08:38:23.743Z,98012.09
2024-04-30T08:40:51.429Z,98015.91
2024-04-30T08:43:19.747Z,98020.06
2024-04-30T08:45:48.168Z,98027.16
2024-04-30T08:48:17.722Z,98023.88
2024-04-30T08:50:47.223Z,98024.84
2024-04-30T08:53:17.172Z,98029.38
2024-04-30T08:55:46.613Z,98027.25
2024-04-30T08:58:14.515Z,98021.16
2024-04-30T09:00:42.156Z,98021.38
2024-04-30T09:03:10.165Z,98014.91
2024-04-30T09:05:38.778Z,98025.84
2024-04-30T09:08:06.720Z,98011.84
2024-04-30T09:10:36.129Z,98006.00
2024-04-30T09:13:04.107Z,98010.41
2024-04-30T09:15:31.771Z,98009.41
2024-04-30T09:18:09.534Z,98007.16
2024-04-30T09:20:47.246Z,97989.66
2024-04-30T09:23:25.904Z,98015.56
2024-04-30T09:25:53.880Z,98001.84
2024-04-30T09:28:22.232Z,98007.66
2024-04-30T09:31:00.396Z,97996.91
2024-04-30T09:33:29.479Z,97999.47
2024-04-30T09:36:06.716Z,98001.53
2024-04-30T09:38:39.765Z,98005.44
2024-04-30T09:41:11.851Z,98007.22
2024-04-30T09:43:41.153Z,97990.00
2024-04-30T09:46:09.523Z,98003.38
2024-04-30T09:48:39.983Z,97999.19
2024-04-30T09:51:13.440Z,97995.50
2024-04-30T09:53:42.076Z,97992.13
2024-04-30T09:56:10.340Z,97986.78
2024-04-30T09:58:38.680Z,97985.25
2024-04-30T10:01:11.554Z,97981.41
2024-04-30T10:03:41.254Z,97980.31
2024-04-30T10:06:10.384Z,97972.84
2024-04-30T10:08:40.756Z,97964.59
2024-04-30T10:11:09.029Z,97971.47
2024-04-30T10:13:48.275Z,97966.22
2024-04-30T10:16:17.350Z,97968.38
2024-04-30T10:18:45.574Z,97961.41
2024-04-30T10:21:13.886Z,97965.38
2024-04-30T10:23:45.368Z,97953.16
2024-04-30T10:26:15.234Z,97958.44
2024-04-30T10:28:43.142Z,97950.75
2024-04-30T10:31:18.664Z,97952.03
2024-04-30T10:33:46.984Z,97944.53
2024-04-30T10:36:16.298Z,97952.63
2024-04-30T10:38:44.198Z,97940.28
2024-04-30T10:41:11.882Z,97944.22
2024-04-30T10:43:39.659Z,97941.91
2024-04-30T10:46:16.762Z,97943.69
2024-04-30T10:48:51.764Z,97941.34
2024-04-30T10:51:20.900Z,97945.44
2024-04-30T10:53:49.681Z,97936.59
2024-04-30T10:56:18.936Z,97934.56
2024-04-30T10:58:59.278Z,97941.19
2024-04-30T11:01:29.155Z,97927.59
2024-04-30T11:04:12.956Z,97933.78
2024-04-30T11:06:48.501Z,97926.00
2024-04-30T11:09:16.682Z,97930.22
2024-04-30T11:11:50.801Z,97927.78
2024-04-30T11:14:25.113Z,97925.44
2024-04-30T11:16:55.602Z,97924.63
2024-04-30T11:19:24.112Z,97920.28
2024-04-30T11:21:54.223Z,97918.94
2024-04-30T11:24:21.926Z,97913.28
2024-04-30T11:26:50.873Z,97913.09
2024-04-30T11:31:49.604Z,97909.06
2024-04-30T11:34:17.292Z,97900.03
2024-04-30T11:36:45.197Z,97885.22
2024-04-30T11:39:14.122Z,97896.03
2024-04-30T11:41:48.805Z,97905.88
2024-04-30T11:44:24.188Z,97891.59
2024-04-30T11:46:51.864Z,97890.16
2024-04-30T11:49:19.694Z,97892.44
2024-04-30T11:51:47.308Z,97901.78
2024-04-30T11:54:14.989Z,97903.84
2024-04-30T11:56:42.684Z,97901.09
2024-04-30T11:59:10.394Z,97884.13
2024-04-30T12:01:38.126Z,97894.31
2024-04-30T12:04:06.047Z,97894.44
2024-04-30T12:06:36.499Z,97879.84
2024-04-30T12:09:05.995Z,97881.94
2024-04-30T12:11:38.790Z,97875.72
2024-04-30T12:14:06.622Z,97865.47
2024-04-30T12:16:34.325Z,97859.00
2024-04-30T12:19:02.678Z,97848.78
2024-04-30T12:21:30.372Z,97850.47
2024-04-30T12:23:58.109Z,97839.88
2024-04-30T12:26:25.712Z,97837.69
2024-04-30T12:28:53.374Z,97840.88
2024-04-30T12:31:21.035Z,97844.25
2024-04-30T12:33:48.749Z,97844.25
2024-04-30T12:36:16.459Z,97844.97
2024-04-30T12:38:44.113Z,97849.19
2024-04-30T12:41:11.810Z,97850.97
2024-04-30T12:43:39.852Z,97849.56
2024-04-30T12:46:07.661Z,97843.31
2024-04-30T12:48:36.120Z,97846.97
2024-04-30T12:51:03.938Z,97842.81
2024-04-30T12:53:31.630Z,97837.59
2024-04-30T12:55:59.399Z,97838.63
2024-04-30T12:58:27.256Z,97835.22
2024-04-30T13:00:55.177Z,97837.28
2024-04-30T13:03:22.977Z,97825.16
2024-04-30T13:05:51.054Z,97822.63
2024-04-30T13:08:19.429Z,97821.34
2024-04-30T13:10:47.091Z,97818.19
2024-04-30T13:13:15.220Z,97812.25
2024-04-30T13:15:42.807Z,97804.72
2024-04-30T13:18:10.472Z,97804.69
2024-04-30T13:20:39.651Z,97802.13
2024-04-30T13:23:07.408Z,97801.66
2024-04-30T13:25:35.049Z,97793.88
2024-04-30T13:28:02.826Z,97795.72
2024-04-30T13:30:30.390Z,97787.72
2024-04-30T13:32:58.225Z,97783.88
2024-04-30T13:35:25.911Z,97776.50
2024-04-30T13:37:53.732Z,97769.78
2024-04-30T13:40:21.449Z,97775.84
2024-04-30T13:42:49.416Z,97769.84
2024-04-30T13:45:17.122Z,97765.41
2024-04-30T13:47:45.191Z,97766.34
2024-04-30T13:50:12.914Z,97757.94
2024-04-30T13:52:40.588Z,97752.84
2024-04-30T13:55:08.364Z,97748.72
2024-04-30T13:57:36.126Z,97748.97
2024-04-30T14:00:06.663Z,97749.28
2024-04-30T14:02:38.522Z,97746.41
2024-04-30T14:05:06.717Z,97738.03
2024-04-30T14:07:34.398Z,97737.38
2024-04-30T14:10:02.415Z,97728.72
2024-04-30T14:12:30.030Z,97725.66
2024-04-30T14:14:57.854Z,97728.19
2024-04-30T14:17:25.541Z,97720.63
2024-04-30T14:19:53.363Z,97731.91
2024-04-30T14:22:21.116Z,97725.41
2024-04-30T14:24:48.769Z,97727.44
2024-04-30T14:27:16.365Z,97720.72
2024-04-30T14:29:45.603Z,97710.72
2024-04-30T14:32:13.301Z,97716.28
2024-04-30T14:34:41.155Z,97721.88
2024-04-30T14:37:08.886Z,97711.91
2024-04-30T14:39:36.654Z,97712.81
2024-04-30T14:42:04.346Z,97707.03
2024-04-30T14:44:32.030Z,97711.59
2024-04-30T14:46:59.628Z,97714.00
2024-04-30T14:49:27.260Z,97709.78
2024-04-30T14:51:54.851Z,97706.84
2024-04-30T14:54:22.628Z,97707.25
2024-04-30T14:56:52.514Z,97708.94
2024-04-30T14:59:23.138Z,97709.72
2024-04-30T15:04:18.562Z,97704.53
2024-04-30T15:06:46.305Z,97707.06
2024-04-30T15:09:14.090Z,97708.03
2024-04-30T15:11:41.701Z,97689.53
2024-04-30T15:14:09.470Z,97696.31
2024-04-30T15:16:43.885Z,97695.91
2024-04-30T15:19:11.843Z,97691.19
2024-04-30T15:21:43.665Z,97695.84
2024-04-30T15:24:11.370Z,97693.13
2024-04-30T15:26:39.628Z,97684.38
2024-04-30T15:29:07.540Z,97686.31
2024-04-30T15:31:35.185Z,97682.38
2024-04-30T15:34:02.876Z,97674.78
2024-04-30T15:36:30.471Z,97670.66
2024-04-30T15:38:58.155Z,97678.31
2024-04-30T15:41:25.747Z,97674.53
2024-04-30T15:43:53.576Z,97666.88
2024-04-30T15:46:21.282Z,97671.06
2024-04-30T15:48:51.207Z,97665.59
2024-04-30T15:51:19.532Z,97662.47
2024-04-30T15:53:47.187Z,97666.19
2024-04-30T15:56:17.747Z,97663.00
2024-04-30T15:58:47.656Z,97660.72
2024-04-30T16:01:16.082Z,97662.34
2024-04-30T16:03:45.139Z,97658.69
2024-04-30T16:06:14.424Z,97657.75
2024-04-30T16:08:42.276Z,97663.00
2024-04-30T16:11:11.618Z,97667.38
2024-04-30T16:13:41.771Z,97665.75
2024-04-30T16:16:16.433Z,97671.72
2024-04-30T16:18:48.151Z,97657.88
2024-04-30T16:21:17.074Z,97652.94
2024-04-30T16:23:45.111Z,97659.41
2024-04-30T16:26:12.905Z,97651.53
2024-04-30T16:28:44.532Z,97650.47
2024-04-30T16:31:15.361Z,97648.31
2024-04-30T16:33:43.927Z,97644.91
2024-04-30T16:36:21.348Z,97647.66
2024-04-30T16:38:50.707Z,97647.97
2024-04-30T16:41:18.468Z,97642.09
2024-04-30T16:43:46.187Z,97642.75
2024-04-30T16:46:13.826Z,97648.41
2024-04-30T16:48:42.461Z,97646.31
2024-04-30T16:51:14.445Z,97648.41
2024-04-30T16:53:43.636Z,97645.38
2024-04-30T16:56:12.170Z,97648.41
2024-04-30T16:58:39.882Z,97641.69
2024-04-30T17:01:07.757Z,97644.41
2024-04-30T17:03:40.630Z,97641.66
2024-04-30T17:06:12.345Z,97658.78
2024-04-30T17:08:41.294Z,97658.00
2024-04-30T17:11:11.057Z,97652.69
2024-04-30T17:13:45.585Z,97659.09
2024-04-30T17:16:23.720Z,97666.31
2024-04-30T17:18:52.057Z,97673.63
2024-04-30T17:21:23.003Z,97660.00
2024-04-30T17:23:51.133Z,97666.53
2024-04-30T17:26:26.546Z,97676.19
2024-04-30T17:28:55.470Z,97667.03
2024-04-30T17:31:23.364Z,97670.03
2024-04-30T17:33:56.291Z,97666.59
2024-04-30T17:36:24.348Z,97667.38
2024-04-30T17:38:52.167Z,97671.94
2024-04-30T17:41:27.679Z,97670.56
2024-04-30T17:43:55.605Z,97666.19
2024-04-30T17:46:26.244Z,97674.38
2024-04-30T17:48:56.506Z,97678.19
2024-04-30T17:51:28.612Z,97675.09
2024-04-30T17:53:56.311Z,97678.38
2024-04-30T17:56:23.918Z,97677.84
2024-04-30T17:58:51.757Z,97682.13
2024-04-30T18:01:20.050Z,97681.19
2024-04-30T18:03:54.900Z,97688.31
2024-04-30T18:06:23.426Z,97687.44
2024-04-30T18:08:57.873Z,97682.00
2024-04-30T18:11:26.752Z,97685.38
2024-04-30T18:13:55.184Z,97692.47
2024-04-30T18:16:23.170Z,97697.19
2024-04-30T18:18:51.522Z,97692.84
2024-04-30T18:21:20.450Z,97696.97
2024-04-30T18:23:49.231Z,97697.69
2024-04-30T18:26:16.954Z,97692.06
2024-04-30T18:28:51.283Z,97698.16
2024-04-30T18:31:19.491Z,97693.16
2024-04-30T18:33:47.393Z,97696.94
2024-04-30T18:36:15.307Z,97699.75
2024-04-30T18:38:44.513Z,97698.13
2024-04-30T18:41:24.214Z,97699.84
2024-04-30T18:43:55.944Z,97708.69
2024-04-30T18:46:23.615Z,97709.47
2024-04-30T18:48:52.064Z,97701.63
2024-04-30T18:51:20.527Z,97718.06
2024-04-30T18:53:48.513Z,97719.41
2024-04-30T18:56:18.933Z,97718.72
2024-04-30T18:58:47.820Z,97728.19
2024-04-30T19:01:18.768Z,97723.66
2024-04-30T19:03:49.474Z,97726.00
2024-04-30T19:06:21.592Z,97734.19
2024-04-30T19:08:50.743Z,97734.03
2024-04-30T19:11:18.822Z,97736.00
2024-04-30T19:13:46.529Z,97731.38
2024-04-30T19:16:14.752Z,97730.47
2024-04-30T19:18:44.195Z,97734.25
2024-04-30T19:21:12.903Z,97739.66
2024-04-30T19:23:40.670Z,97736.59
2024-04-30T19:26:14.424Z,97736.81
2024-04-30T19:28:43.225Z,97730.09
2024-04-30T19:31:17.388Z,97735.84
2024-04-30T19:33:45.267Z,97736.44
2024-04-30T19:36:20.548Z,97731.97
2024-04-30T19:38:48.728Z,97730.16
2024-04-30T19:41:17.345Z,97730.09
2024-04-30T19:43:45.099Z,97736.09
2024-04-30T19:46:14.801Z,97735.53
2024-04-30T19:48:43.207Z,97740.03
2024-04-30T19:51:10.946Z,97733.31
2024-04-30T19:53:38.690Z,97733.72
2024-04-30T19:56:06.769Z,97743.25
2024-04-30T19:58:34.409Z,97737.25
2024-04-30T20:01:02.005Z,97718.81
2024-04-30T20:03:29.803Z,97727.72
2024-04-30T20:05:57.701Z,97723.56
2024-04-30T20:08:25.530Z,97726.19
2024-04-30T20:10:53.156Z,97721.66
2024-04-30T20:13:24.341Z,97729.91
2024-04-30T20:15:52.075Z,97721.09
2024-04-30T20:18:19.812Z,97720.72
2024-04-30T20:20:47.610Z,97718.38
2024-04-30T20:23:15.225Z,97716.53
2024-04-30T20:25:43.335Z,97714.41
2024-04-30T20:28:10.945Z,97725.31
2024-04-30T20:30:38.657Z,97715.28
2024-04-30T20:33:06.327Z,97720.75
2024-04-30T20:35:34.116Z,97711.03
2024-04-30T20:38:01.647Z,97704.47
2024-04-30T20:40:29.498Z,97714.28
2024-04-30T20:42:57.131Z,97707.81
2024-04-30T20:45:24.873Z,97702.41
2024-04-30T20:47:52.674Z,97701.97
2024-04-30T20:50:20.451Z,97696.94
2024-04-30T20:52:48.018Z,97703.47
2024-04-30T20:55:15.669Z,97695.75
2024-04-30T20:57:44.299Z,97700.06
2024-04-30T21:00:12.729Z,97706.56
2024-04-30T21:02:40.359Z,97704.34
2024-04-30T21:05:08.071Z,97699.38
2024-04-30T21:07:35.789Z,97707.16
2024-04-30T21:10:03.702Z,97706.94
2024-04-30T21:12:31.346Z,97700.19
2024-04-30T21:14:58.971Z,97690.75
2024-04-30T21:17:26.544Z,97694.81
2024-04-30T21:19:57.382Z,97700.53
2024-04-30T21:22:26.189Z,97688.69
2024-04-30T21:24:53.798Z,97691.09
2024-04-30T21:27:21.588Z,97696.25
2024-04-30T21:29:49.216Z,97697.66
2024-04-30T21:32:16.857Z,97689.06
2024-04-30T21:34:45.038Z,97684.31
2024-04-30T21:37:12.632Z,97683.00
2024-04-30T21:39:40.334Z,97686.53
2024-04-30T21:42:08.527Z,97678.97
2024-04-30T21:44:36.080Z,97679.91
2024-04-30T21:47:03.892Z,97677.09
2024-04-30T21:49:31.518Z,97663.16
2024-04-30T21:51:59.375Z,97670.19
2024-04-30T21:54:27.091Z,97670.50
2024-04-30T21:56:54.713Z,97663.53
2024-04-30T21:59:22.365Z,97670.31
2024-04-30T22:01:50.061Z,97668.69
2024-04-30T22:04:20.406Z,97659.81
2024-04-30T22:06:48.434Z,97666.31
2024-04-30T22:09:15.987Z,97663.63
2024-04-30T22:11:43.742Z,97672.31
2024-04-30T22:14:11.289Z,97673.69
2024-04-30T22:16:38.879Z,97667.78
2024-04-30T22:19:06.513Z,97662.94
2024-04-30T22:21:34.261Z,97658.91
2024-04-30T22:24:01.971Z,97657.88
2024-04-30T22:26:29.605Z,97655.78
2024-04-30T22:28:57.204Z,97656.09
2024-04-30T22:31:24.890Z,97645.06
2024-04-30T22:33:52.639Z,97636.19
2024-04-30T22:36:20.425Z,97634.03
2024-04-30T22:38:48.006Z,97644.56
2024-04-30T22:41:15.588Z,97641.06
2024-04-30T22:43:43.269Z,97639.97
2024-04-30T22:46:14.727Z,97648.06
2024-04-30T22:48:43.417Z,97643.41
2024-04-30T22:51:11.088Z,97643.78
2024-04-30T22:53:47.209Z,97641.03
2024-04-30T22:56:18.249Z,97629.72
2024-04-30T22:58:45.906Z,97622.72
2024-04-30T23:01:13.820Z,97628.38
2024-04-30T23:03:41.547Z,97620.09
2024-04-30T23:06:09.280Z,97618.50
2024-04-30T23:08:39.788Z,97616.38
2024-04-30T23:11:07.513Z,97615.88
2024-04-30T23:13:35.202Z,97614.28
2024-04-30T23:16:03.400Z,97606.47
2024-04-30T23:18:31.340Z,97605.91
2024-04-30T23:20:59.159Z,97606.75
2024-04-30T23:23:26.657Z,97605.19
2024-04-30T23:25:54.370Z,97604.09
2024-04-30T23:28:21.950Z,97602.22
2024-04-30T23:30:49.566Z,97601.13
2024-04-30T23:33:17.228Z,97591.19
2024-04-30T23:35:44.874Z,97584.19
2024-04-30T23:38:12.591Z,97578.00
2024-04-30T23:40:40.153Z,97576.91
2024-04-30T23:43:07.882Z,97566.13
2024-04-30T23:45:35.679Z,97562.34
2024-04-30T23:48:03.361Z,97567.47
2024-04-30T23:50:31.072Z,97566.69
2024-04-30T23:52:58.575Z,97549.72
2024-04-30T23:55:26.130Z,97560.44
2024-04-30T23:57:54.441Z,97544.56
